WEATHER DATA

YESTERDAY
Time Temp. Dewp. Hum. Wind dir Wind speed Wind gust Bar. 1h Prec. 24h Prec.
00:08 13.6 12.3 92 197 0.3 1.1 1014.9 0.0000 0.0000
00:19 13.6 12.3 92 204 0.8 1.1 1014.9 0.0000 0.0000
00:29 13.6 12.3 92 203 0.3 1.4 1014.8 0.0000 0.0000
00:39 13.5 12.2 92 205 0.3 1.1 1014.8 0.0000 0.0000
00:49 13.4 12.1 92 195 0.3 1.1 1014.7 0.0000 0.0000
00:59 13.3 12 92 202 0.8 1.1 1014.7 0.0000 0.0000
01:09 13.2 11.9 92 206 0.8 1.1 1014.7 0.0000 0.0000
01:19 13 11.7 92 206 0.8 1.9 1014.7 0.0000 0.0000
01:30 12.8 11.5 92 204 0.8 1.4 1014.7 0.0000 0.0000
01:39 12.6 11.3 92 201 0.8 1.9 1014.7 0.0000 0.0000
01:49 12.4 11.1 92 206 0.8 1.1 1014.6 0.0000 0.0000
01:59 12.3 11 92 208 0.8 1.4 1014.6 0.0000 0.0000
02:10 12.2 11.1 93 205 1.1 2.2 1014.6 0.0000 0.0000
02:19 12.2 11.1 93 203 0.8 1.4 1014.5 0.0000 0.0000
02:29 12 10.7 92 209 0.8 1.9 1014.5 0.0000 0.0000
02:40 11.8 10.5 92 214 0.8 1.4 1014.4 0.0000 0.0000
02:50 11.7 10.6 93 213 0.8 1.1 1014.5 0.0000 0.0000
03:00 11.5 10.2 92 214 0.3 1.1 1014.4 0.0000 0.0000
03:10 11.4 10.3 93 195 0.8 1.4 1014.4 0.0000 0.0000
03:20 11.4 10.5 94 205 0.8 1.9 1014.4 0.0000 0.0000
03:30 11.4 10.5 94 205 0.8 1.9 1014.4 0.0000 0.0000
03:40 11.4 10.5 94 202 0.8 1.4 1014.3 0.0000 0.0000
03:51 11.3 10.2 93 210 0.8 1.4 1014.3 0.0000 0.0000
04:00 11.2 10.1 93 202 0.3 1.1 1014.3 0.0000 0.0000
04:10 11 9.9 93 207 0.3 1.1 1014.3 0.0000 0.0000
04:20 10.8 9.7 93 209 0.3 1.1 1014.2 0.0000 0.0000
04:31 10.7 9.6 93 210 0.8 1.4 1014.2 0.0000 0.0000
04:41 10.6 9.5 93 208 0.3 1.1 1014.2 0.0000 0.0000
04:50 10.5 9.6 94 206 0.3 1.1 1014.1 0.0000 0.0000
05:01 10.5 9.6 94 214 0.3 1.1 1014.2 0.0000 0.0000
05:11 10.5 9.6 94 216 0.8 1.1 1014.1 0.0000 0.0000
05:21 10.2 9.1 93 216 0.8 1.1 1014.1 0.0000 0.0000
05:31 10.1 9.2 94 209 0.3 1.1 1014.1 0.0000 0.0000
05:41 10.1 9.2 94 210 0.3 1.1 1014 0.0000 0.0000
05:51 10 9.1 94 218 0.3 1.1 1013.9 0.0000 0.0000
06:01 9.8 8.7 93 211 0.3 1.1 1013.9 0.0000 0.0000
06:12 9.6 8.5 93 217 0.3 1.1 1013.9 0.0000 0.0000
06:22 9.4 8.3 93 210 0.8 1.1 1013.8 0.0000 0.0000
06:31 9.2 8.1 93 218 0.3 1.4 1013.8 0.0000 0.0000
06:41 9 8.1 94 225 0.3 1.1 1013.9 0.0000 0.0000
06:52 8.9 8 94 225 0.3 0.8 1013.9 0.0000 0.0000
07:02 8.8 7.9 94 213 0.8 1.4 1013.9 0.0000 0.0000
07:11 8.8 8 95 215 0.3 1.1 1014 0.0000 0.0000
07:22 9.1 8.5 96 211 0.3 1.1 1014 0.0000 0.0000
07:32 10.3 10 98 214 0.3 1.1 1014 0.0000 0.0000
07:42 10.7 10.1 96 203 0.3 1.1 1014 0.0000 0.0000
07:52 11 10.2 95 206 0.3 1.1 1014.1 0.0000 0.0000
08:02 11.1 10.2 94 199 0.3 1.1 1014.1 0.0000 0.0000
08:12 11.3 10.4 94 203 0.3 1.1 1014.1 0.0000 0.0000
08:22 11.4 10.5 94 185 0.8 1.1 1014 0.0000 0.0000
08:33 11.5 10.6 94 177 0.3 1.1 1014.1 0.0000 0.0000
08:43 11.8 10.9 94 188 0.3 1.1 1014 0.0000 0.0000
08:52 12 11.1 94 192 0.3 1.1 1014 0.0000 0.0000
09:02 12.4 11.5 94 195 0.8 1.4 1014.1 0.0000 0.0000
09:13 13 12.1 94 216 0.8 1.4 1014.1 0.0000 0.0000
09:23 13.6 12.5 93 189 0.8 1.4 1014.1 0.0000 0.0000
09:33 14.1 12.7 91 182 0.8 1.4 1014.1 0.0000 0.0000
09:58 16.4 13.7 84 187 1.1 2.5 1014.1 0.0000 0.0000
10:08 16.8 13.5 81 171 1.1 1.9 1014.1 0.0000 0.0000
10:18 17.2 13.7 80 188 1.1 2.2 1014.1 0.0000 0.0000
10:28 17.3 13.6 79 180 1.1 1.9 1014.1 0.0000 0.0000
10:38 17.4 13.5 78 180 0.8 1.9 1014.1 0.0000 0.0000
10:48 18 14.1 78 184 1.1 1.9 1014 0.0000 0.0000
10:59 18.2 13.7 75 173 1.1 2.2 1014 0.0000 0.0000
11:09 18.1 13.4 74 193 0.8 1.9 1013.8 0.0000 0.0000
11:18 18.3 13.2 72 182 1.1 2.8 1013.6 0.0000 0.0000
11:29 18.3 13.2 72 168 1.1 2.2 1013.7 0.0000 0.0000
11:39 18.1 12.8 71 145 0.8 2.8 1013.6 0.0000 0.0000
11:49 18 12.9 72 174 1.1 2.2 1013.3 0.0000 0.0000
11:59 18.6 12.8 69 180 0.8 2.5 1013.1 0.0000 0.0000
12:09 19.3 13 67 146 1.1 4.4 1013 0.0000 0.0000
12:19 19.7 12.9 65 125 1.1 2.8 1012.9 0.0000 0.0000
12:29 19.5 12.8 65 175 1.1 2.8 1012.9 0.0000 0.0000
12:39 19.9 12.7 63 195 1.1 2.5 1012.7 0.0000 0.0000
12:50 20.1 12.6 62 158 1.1 2.8 1012.5 0.0000 0.0000
12:59 20 12.7 63 140 1.1 2.5 1012.4 0.0000 0.0000
13:09 20.3 13 63 163 1.1 2.2 1012.3 0.0000 0.0000
13:20 20.1 12.4 61 141 1.1 3.3 1012.3 0.0000 0.0000
13:30 20.1 13.1 64 169 1.1 2.5 1012.2 0.0000 0.0000
13:40 19.6 12.4 63 190 0.8 1.9 1012 0.0000 0.0000
13:50 19.9 12.7 63 183 1.1 2.2 1012 0.0000 0.0000
14:00 20.8 13 61 176 1.1 2.5 1012 0.0000 0.0000
14:10 20.5 13.5 64 178 1.1 2.8 1011.9 0.0000 0.0000
14:20 20.4 13.4 64 172 1.1 2.5 1011.9 0.0000 0.0000
14:31 20.8 14.2 66 188 1.1 1.9 1011.7 0.0000 0.0000
14:40 21 14.2 65 135 0.8 2.2 1011.6 0.0000 0.0000
14:50 20.8 13.7 64 166 0.8 2.2 1011.6 0.0000 0.0000
15:00 20.8 13.7 64 175 1.1 2.2 1011.5 0.0000 0.0000
15:11 20.7 13.7 64 171 1.1 2.2 1011.4 0.0000 0.0000
15:20 20.7 13.7 64 186 1.1 2.2 1011.4 0.0000 0.0000
15:30 20.8 14 65 173 1.4 2.5 1011.4 0.0000 0.0000
15:41 20.7 14.1 66 166 1.1 2.2 1011.6 0.0000 0.0000
15:51 20.3 13.3 64 170 1.1 1.9 1011.5 0.0000 0.0000
16:01 20 13 64 167 1.1 1.9 1011.5 0.0000 0.0000
16:11 19.7 13.2 66 176 1.1 1.9 1011.4 0.0000 0.0000
16:21 19.5 13 66 163 1.1 2.8 1011.6 0.0000 0.0000
16:31 19.2 12.7 66 167 0.8 2.2 1011.6 0.0000 0.0000
16:41 19 12.5 66 160 0.8 1.9 1011.6 0.0000 0.0000
16:52 18.8 12.3 66 186 1.1 2.5 1011.7 0.0000 0.0000
17:01 18.7 12.2 66 174 1.1 3.3 1011.7 0.0000 0.0000
17:11 18.5 12 66 150 1.1 2.5 1011.8 0.0000 0.0000
17:21 18.3 12.1 67 148 1.1 2.2 1011.8 0.0000 0.0000
17:32 18.1 11.9 67 171 1.1 1.9 1011.9 0.0000 0.0000
17:42 17.9 11.7 67 173 0.8 2.5 1012 0.0000 0.0000
17:51 17.6 11.2 66 164 1.1 3.3 1012 0.0000 0.0000
18:02 17.4 11.2 67 185 1.1 1.9 1012.2 0.0000 0.0000
18:12 17.3 11.1 67 158 1.1 2.2 1012.3 0.0000 0.0000
18:22 17 10.8 67 155 1.1 2.2 1012.4 0.0000 0.0000
18:32 16.7 10.8 68 172 1.1 2.2 1012.5 0.0000 0.0000
18:42 16.5 10.8 69 166 1.1 1.9 1012.8 0.0000 0.0000
18:52 16.3 10.4 68 135 1.1 3.3 1012.9 0.0000 0.0000
19:02 16.1 10.4 69 182 0.8 1.4 1013 0.0000 0.0000
19:12 15.9 10.4 70 201 0.8 2.2 1013.1 0.0000 0.0000
19:23 15.8 10.3 70 167 0.8 2.5 1013.3 0.0000 0.0000
19:32 15.6 10.2 70 166 0.8 1.9 1013.4 0.0000 0.0000
19:42 15.5 10.3 71 183 0.8 1.9 1013.5 0.0000 0.0000
19:53 15.4 10.2 71 171 0.8 2.2 1013.6 0.0000 0.0000
20:03 15.3 10.1 71 201 0.8 2.5 1013.8 0.0000 0.0000
20:12 15.2 10.2 72 188 0.8 1.9 1014 0.0000 0.0000
20:23 15.1 10.1 72 194 0.8 1.4 1014.1 0.0000 0.0000
20:33 15 10 72 207 0.8 1.4 1014.1 0.0000 0.0000
20:43 14.9 9.7 71 153 0.8 2.2 1014.2 0.0000 0.0000
20:53 14.8 9.6 71 184 0.8 1.4 1014.2 0.0000 0.0000
21:03 14.7 9.7 72 195 0.8 1.4 1014.3 0.0000 0.0000
21:13 14.6 9.6 72 195 0.8 1.4 1014.3 0.0000 0.0000
21:23 14.5 9.5 72 181 0.8 1.4 1014.4 0.0000 0.0000
21:33 14.5 9.7 73 201 0.8 1.4 1014.5 0.0000 0.0000
21:44 14.4 9.8 74 194 0.8 1.4 1014.5 0.0000 0.0000
21:53 14.3 9.7 74 202 0.8 1.4 1014.5 0.0000 0.0000
22:03 14.2 9.6 74 197 0.8 1.4 1014.5 0.0000 0.0000
22:14 14.1 9.7 75 199 0.8 1.4 1014.5 0.0000 0.0000
22:24 14 9.6 75 201 0.8 1.4 1014.6 0.0000 0.0000
22:34 14 10 77 204 0.8 1.4 1014.6 0.0000 0.0000
22:44 13.9 9.9 77 202 0.8 1.1 1014.7 0.0000 0.0000
22:54 13.9 9.9 77 202 0.8 1.4 1014.7 0.0000 0.0000
23:04 13.9 10.1 78 203 0.8 1.1 1014.8 0.0000 0.0000
23:14 13.8 10.4 80 199 0.3 1.1 1014.8 0.0000 0.0000
23:24 13.7 10.3 80 195 0.3 1.4 1014.9 0.0000 0.0000
23:34 13.6 10.2 80 207 0.8 1.4 1015 0.0000 0.0000
23:44 13.6 10 79 216 0.8 1.1 1015 0.0000 0.0000
23:54 13.6 10 79 207 0.3 1.1 1015 0.0000

DAY STATISTIC

2021-09-19
TEMPERATURE
AVERAGE
15.0
HIGH
21.0
14:40
LOW
8.8
07:02
PRESSURE
AVERAGE
1013.6
HIGH
1015.0
23:34
LOW
1011.4
15:11
DEWPOINT
AVERAGE
11.2
HIGH
14.2
14:31
LOW
7.9
07:02
HUMIDITY
AVERAGE
79
HIGH
98
07:32
LOW
61
13:20
WIND SPEED
AVERAGE
0.8
HIGH
1.4
15:30
WIND GUST
AVERAGE
1.8
HIGH
4.4
12:09
WIND DIRECTION
PREVAILING
S
63.8%
N
0.0
NE
0.0
E
0.0
SE
7.8
S
63.8
SW
28.4
W
0.0
NW
0.0
PRECIPITATION
RAIN HOUR
0.0
RAIN DAY
0.0
TEMPERATURE (°C)
LOW
8.8
HIGH
21.0
AVERAGE
15.0
PRESSURE (hpa)
LOW
1011.4
HIGH
1015.0
AVERAGE
1013.6
DEVICE